sensor_id;sensor_type;location;lat;lon;timestamp;pressure;altitude;pressure_sealevel;temperature;humidity
3968;BME280;9221;42.646;23.380;2023-04-01T00:00:04;93582.63;;;13.27;58.57
3968;BME280;9221;42.646;23.380;2023-04-01T00:02:30;93638.78;;;13.22;59.59
3968;BME280;9221;42.646;23.380;2023-04-01T00:04:56;93647.78;;;12.84;60.16
3968;BME280;9221;42.646;23.380;2023-04-01T00:07:21;93753.47;;;12.11;62.55
3968;BME280;9221;42.646;23.380;2023-04-01T00:09:47;93686.03;;;12.15;63.64
3968;BME280;9221;42.646;23.380;2023-04-01T00:12:12;93610.91;;;11.65;64.07
3968;BME280;9221;42.646;23.380;2023-04-01T00:14:38;93656.31;;;11.60;65.23
3968;BME280;9221;42.646;23.380;2023-04-01T00:17:04;93625.06;;;11.34;66.15
3968;BME280;9221;42.646;23.380;2023-04-01T00:19:30;93646.97;;;11.58;65.92
3968;BME280;9221;42.646;23.380;2023-04-01T00:21:57;93649.78;;;11.33;66.25
3968;BME280;9221;42.646;23.380;2023-04-01T00:24:23;93516.88;;;10.35;67.24
3968;BME280;9221;42.646;23.380;2023-04-01T00:26:48;93594.78;;;10.60;68.48
3968;BME280;9221;42.646;23.380;2023-04-01T00:29:14;93630.38;;;10.88;68.40
3968;BME280;9221;42.646;23.380;2023-04-01T00:31:39;93503.59;;;10.20;67.93
3968;BME280;9221;42.646;23.380;2023-04-01T00:34:05;93605.28;;;10.92;67.77
3968;BME280;9221;42.646;23.380;2023-04-01T00:36:30;93511.50;;;10.20;68.21
3968;BME280;9221;42.646;23.380;2023-04-01T00:38:57;93620.78;;;10.72;69.27
3968;BME280;9221;42.646;23.380;2023-04-01T00:41:24;93650.63;;;10.64;70.24
3968;BME280;9221;42.646;23.380;2023-04-01T00:43:51;93597.34;;;10.45;70.42
3968;BME280;9221;42.646;23.380;2023-04-01T00:46:17;93571.66;;;10.47;70.40
3968;BME280;9221;42.646;23.380;2023-04-01T00:48:52;93629.78;;;11.00;70.14
3968;BME280;9221;42.646;23.380;2023-04-01T00:51:22;93619.00;;;10.87;70.39
3968;BME280;9221;42.646;23.380;2023-04-01T00:53:51;93615.50;;;10.95;70.41
3968;BME280;9221;42.646;23.380;2023-04-01T00:56:30;93576.81;;;10.64;70.52
3968;BME280;9221;42.646;23.380;2023-04-01T00:59:00;93607.72;;;11.16;70.12
3968;BME280;9221;42.646;23.380;2023-04-01T01:01:28;93557.47;;;10.95;67.80
3968;BME280;9221;42.646;23.380;2023-04-01T01:03:55;93620.91;;;11.16;68.18
3968;BME280;9221;42.646;23.380;2023-04-01T01:06:29;93612.28;;;11.23;67.41
3968;BME280;9221;42.646;23.380;2023-04-01T01:11:52;93545.97;;;10.64;68.52
3968;BME280;9221;42.646;23.380;2023-04-01T01:20:13;93575.56;;;10.98;67.51
3968;BME280;9221;42.646;23.380;2023-04-01T01:31:20;93590.13;;;11.92;63.46
3968;BME280;9221;42.646;23.380;2023-04-01T01:36:20;93541.59;;;11.78;62.65
3968;BME280;9221;42.646;23.380;2023-04-01T01:38:48;93537.28;;;11.92;60.81
3968;BME280;9221;42.646;23.380;2023-04-01T01:41:16;93531.19;;;12.06;60.11
3968;BME280;9221;42.646;23.380;2023-04-01T01:43:46;93545.00;;;12.23;59.84
3968;BME280;9221;42.646;23.380;2023-04-01T01:46:17;93409.69;;;11.40;59.64
3968;BME280;9221;42.646;23.380;2023-04-01T01:48:44;93398.22;;;11.47;59.17
3968;BME280;9221;42.646;23.380;2023-04-01T01:51:11;93514.13;;;12.45;58.70
3968;BME280;9221;42.646;23.380;2023-04-01T01:53:36;93501.91;;;12.23;58.56
3968;BME280;9221;42.646;23.380;2023-04-01T01:56:02;93552.91;;;12.60;58.47
3968;BME280;9221;42.646;23.380;2023-04-01T01:58:37;93562.19;;;12.70;57.34
3968;BME280;9221;42.646;23.380;2023-04-01T02:01:09;93530.22;;;12.50;57.89
3968;BME280;9221;42.646;23.380;2023-04-01T02:03:39;93529.44;;;12.13;58.65
3968;BME280;9221;42.646;23.380;2023-04-01T02:06:07;93511.97;;;12.34;58.43
3968;BME280;9221;42.646;23.380;2023-04-01T02:08:37;93481.63;;;12.30;58.12
3968;BME280;9221;42.646;23.380;2023-04-01T02:11:08;93487.50;;;12.47;57.37
3968;BME280;9221;42.646;23.380;2023-04-01T02:13:37;93518.00;;;12.93;57.32
3968;BME280;9221;42.646;23.380;2023-04-01T02:16:21;93538.88;;;12.81;57.27
3968;BME280;9221;42.646;23.380;2023-04-01T02:18:50;93509.56;;;13.04;56.77
3968;BME280;9221;42.646;23.380;2023-04-01T02:21:20;93468.66;;;12.78;56.60
3968;BME280;9221;42.646;23.380;2023-04-01T02:23:47;93541.78;;;13.14;56.49
3968;BME280;9221;42.646;23.380;2023-04-01T02:26:14;93468.81;;;13.05;56.23
3968;BME280;9221;42.646;23.380;2023-04-01T02:28:41;93455.78;;;13.03;55.98
3968;BME280;9221;42.646;23.380;2023-04-01T02:31:10;93514.09;;;13.39;56.24
3968;BME280;9221;42.646;23.380;2023-04-01T02:33:37;93502.78;;;13.23;56.21
3968;BME280;9221;42.646;23.380;2023-04-01T02:36:04;93513.63;;;12.78;56.97
3968;BME280;9221;42.646;23.380;2023-04-01T02:38:29;93497.81;;;12.63;57.71
3968;BME280;9221;42.646;23.380;2023-04-01T02:41:00;93533.25;;;12.91;57.13
3968;BME280;9221;42.646;23.380;2023-04-01T02:43:27;93477.41;;;12.57;56.96
3968;BME280;9221;42.646;23.380;2023-04-01T02:45:53;93516.13;;;13.15;56.46
3968;BME280;9221;42.646;23.380;2023-04-01T02:48:19;93494.81;;;12.95;56.34
3968;BME280;9221;42.646;23.380;2023-04-01T02:50:45;93461.03;;;12.97;56.40
3968;BME280;9221;42.646;23.380;2023-04-01T02:53:11;93527.47;;;13.30;56.17
3968;BME280;9221;42.646;23.380;2023-04-01T02:55:37;93522.44;;;13.35;55.96
3968;BME280;9221;42.646;23.380;2023-04-01T02:58:02;93487.66;;;13.17;55.54
3968;BME280;9221;42.646;23.380;2023-04-01T03:00:28;93470.31;;;13.14;55.33
3968;BME280;9221;42.646;23.380;2023-04-01T03:02:53;93517.16;;;13.42;55.49
3968;BME280;9221;42.646;23.380;2023-04-01T03:05:19;93494.63;;;13.25;55.28
3968;BME280;9221;42.646;23.380;2023-04-01T03:07:45;93496.22;;;13.19;55.41
3968;BME280;9221;42.646;23.380;2023-04-01T03:10:10;93546.53;;;13.47;55.95
3968;BME280;9221;42.646;23.380;2023-04-01T03:12:36;93559.53;;;13.42;56.51
3968;BME280;9221;42.646;23.380;2023-04-01T03:15:02;93541.09;;;13.34;57.10
3968;BME280;9221;42.646;23.380;2023-04-01T03:17:27;93503.09;;;13.13;57.06
3968;BME280;9221;42.646;23.380;2023-04-01T03:19:52;93599.03;;;13.37;56.81
3968;BME280;9221;42.646;23.380;2023-04-01T03:22:18;93548.78;;;13.50;57.12
3968;BME280;9221;42.646;23.380;2023-04-01T03:24:46;93554.13;;;13.57;56.43
3968;BME280;9221;42.646;23.380;2023-04-01T03:27:12;93582.06;;;13.60;56.30
3968;BME280;9221;42.646;23.380;2023-04-01T03:29:37;93548.41;;;13.53;56.46
3968;BME280;9221;42.646;23.380;2023-04-01T03:32:02;93555.97;;;13.57;57.15
3968;BME280;9221;42.646;23.380;2023-04-01T03:34:28;93530.50;;;13.34;57.65
3968;BME280;9221;42.646;23.380;2023-04-01T03:36:53;93550.09;;;13.33;57.92
3968;BME280;9221;42.646;23.380;2023-04-01T03:39:19;93476.09;;;12.96;57.82
3968;BME280;9221;42.646;23.380;2023-04-01T03:41:45;93508.53;;;13.05;58.45
3968;BME280;9221;42.646;23.380;2023-04-01T03:44:11;93522.06;;;13.17;58.83
3968;BME280;9221;42.646;23.380;2023-04-01T03:46:37;93486.44;;;12.91;58.93
3968;BME280;9221;42.646;23.380;2023-04-01T03:49:05;93482.88;;;12.77;59.35
3968;BME280;9221;42.646;23.380;2023-04-01T03:51:36;93482.63;;;12.72;59.51
3968;BME280;9221;42.646;23.380;2023-04-01T03:54:01;93453.41;;;12.59;59.93
3968;BME280;9221;42.646;23.380;2023-04-01T03:56:27;93458.69;;;12.59;60.09
3968;BME280;9221;42.646;23.380;2023-04-01T03:58:52;93509.47;;;12.47;61.27
3968;BME280;9221;42.646;23.380;2023-04-01T04:01:20;93318.16;;;11.40;62.55
3968;BME280;9221;42.646;23.380;2023-04-01T04:03:49;93410.38;;;12.22;62.87
3968;BME280;9221;42.646;23.380;2023-04-01T04:06:16;93464.25;;;12.64;62.79
3968;BME280;9221;42.646;23.380;2023-04-01T04:08:42;93435.88;;;12.29;63.10
3968;BME280;9221;42.646;23.380;2023-04-01T04:11:08;93419.78;;;12.24;62.51
3968;BME280;9221;42.646;23.380;2023-04-01T04:13:34;93477.53;;;12.27;62.62
3968;BME280;9221;42.646;23.380;2023-04-01T04:16:01;93443.41;;;11.89;64.49
3968;BME280;9221;42.646;23.380;2023-04-01T04:18:27;93377.84;;;11.78;63.60
3968;BME280;9221;42.646;23.380;2023-04-01T04:20:52;93413.56;;;11.59;63.58
3968;BME280;9221;42.646;23.380;2023-04-01T04:23:18;93412.88;;;11.87;63.59
3968;BME280;9221;42.646;23.380;2023-04-01T04:26:04;93427.16;;;12.07;62.44
3968;BME280;9221;42.646;23.380;2023-04-01T04:28:30;93501.78;;;11.79;63.00
3968;BME280;9221;42.646;23.380;2023-04-01T04:30:55;93410.38;;;11.78;63.30
3968;BME280;9221;42.646;23.380;2023-04-01T04:33:21;93428.88;;;12.00;62.50
3968;BME280;9221;42.646;23.380;2023-04-01T04:35:47;93397.38;;;11.83;62.80
3968;BME280;9221;42.646;23.380;2023-04-01T04:38:13;93290.38;;;11.44;62.28
3968;BME280;9221;42.646;23.380;2023-04-01T04:40:40;93396.69;;;12.11;61.91
3968;BME280;9221;42.646;23.380;2023-04-01T04:43:06;93394.84;;;12.12;61.58
3968;BME280;9221;42.646;23.380;2023-04-01T04:45:31;93391.28;;;12.19;60.85
3968;BME280;9221;42.646;23.380;2023-04-01T04:47:56;93412.16;;;12.36;60.59
3968;BME280;9221;42.646;23.380;2023-04-01T04:50:23;93314.81;;;12.18;59.85
3968;BME280;9221;42.646;23.380;2023-04-01T04:52:48;93366.38;;;12.64;58.95
3968;BME280;9221;42.646;23.380;2023-04-01T04:55:14;93368.47;;;12.68;58.83
3968;BME280;9221;42.646;23.380;2023-04-01T04:57:40;93356.50;;;12.73;58.33
3968;BME280;9221;42.646;23.380;2023-04-01T05:00:08;93339.94;;;12.64;58.25
3968;BME280;9221;42.646;23.380;2023-04-01T05:02:35;93331.00;;;12.65;58.30
3968;BME280;9221;42.646;23.380;2023-04-01T05:05:01;93365.31;;;12.86;57.22
3968;BME280;9221;42.646;23.380;2023-04-01T05:07:26;93285.66;;;12.40;57.30
3968;BME280;9221;42.646;23.380;2023-04-01T05:09:51;93391.06;;;13.06;57.31
3968;BME280;9221;42.646;23.380;2023-04-01T05:12:17;93337.66;;;12.89;57.68
3968;BME280;9221;42.646;23.380;2023-04-01T05:14:42;93353.97;;;12.99;58.58
3968;BME280;9221;42.646;23.380;2023-04-01T05:17:09;93384.94;;;12.99;58.88
3968;BME280;9221;42.646;23.380;2023-04-01T05:19:36;93221.25;;;12.12;58.68
3968;BME280;9221;42.646;23.380;2023-04-01T05:22:01;93351.09;;;12.94;58.88
3968;BME280;9221;42.646;23.380;2023-04-01T05:24:27;93342.50;;;12.85;59.56
3968;BME280;9221;42.646;23.380;2023-04-01T05:26:52;93289.69;;;12.64;59.12
3968;BME280;9221;42.646;23.380;2023-04-01T05:29:17;93345.84;;;13.01;59.02
3968;BME280;9221;42.646;23.380;2023-04-01T05:31:43;93272.81;;;12.65;58.75
3968;BME280;9221;42.646;23.380;2023-04-01T05:34:08;93314.88;;;12.95;58.99
3968;BME280;9221;42.646;23.380;2023-04-01T05:36:33;93345.91;;;13.14;58.97
3968;BME280;9221;42.646;23.380;2023-04-01T05:39:00;93288.41;;;12.88;59.10
3968;BME280;9221;42.646;23.380;2023-04-01T05:41:26;93336.16;;;13.21;58.87
3968;BME280;9221;42.646;23.380;2023-04-01T05:43:51;93343.56;;;13.33;58.78
3968;BME280;9221;42.646;23.380;2023-04-01T05:46:17;93312.16;;;13.30;58.54
3968;BME280;9221;42.646;23.380;2023-04-01T05:48:42;93353.31;;;13.32;58.50
3968;BME280;9221;42.646;23.380;2023-04-01T05:51:14;93295.13;;;12.91;58.54
3968;BME280;9221;42.646;23.380;2023-04-01T05:53:41;93341.28;;;13.30;58.20
3968;BME280;9221;42.646;23.380;2023-04-01T05:56:07;93383.47;;;13.31;58.07
3968;BME280;9221;42.646;23.380;2023-04-01T05:58:35;93330.63;;;13.58;57.36
3968;BME280;9221;42.646;23.380;2023-04-01T06:01:02;93289.84;;;13.52;56.76
3968;BME280;9221;42.646;23.380;2023-04-01T06:03:28;93312.34;;;13.83;56.08
3968;BME280;9221;42.646;23.380;2023-04-01T06:05:54;93291.13;;;13.97;55.84
3968;BME280;9221;42.646;23.380;2023-04-01T06:08:19;93324.56;;;13.98;55.31
3968;BME280;9221;42.646;23.380;2023-04-01T06:19:05;93316.44;;;14.19;54.38
3968;BME280;9221;42.646;23.380;2023-04-01T06:27:51;93385.41;;;14.46;53.72
3968;BME280;9221;42.646;23.380;2023-04-01T06:36:25;93358.06;;;14.26;54.21
3968;BME280;9221;42.646;23.380;2023-04-01T06:49:56;93285.84;;;14.30;55.87
3968;BME280;9221;42.646;23.380;2023-04-01T06:58:09;93269.13;;;14.30;56.87
3968;BME280;9221;42.646;23.380;2023-04-01T07:00:39;93256.06;;;13.95;58.52
3968;BME280;9221;42.646;23.380;2023-04-01T07:03:31;93277.88;;;14.10;58.76
3968;BME280;9221;42.646;23.380;2023-04-01T07:06:02;93225.91;;;13.96;58.75
3968;BME280;9221;42.646;23.380;2023-04-01T07:08:29;93267.69;;;14.20;59.20
3968;BME280;9221;42.646;23.380;2023-04-01T07:11:02;93195.75;;;13.90;58.92
3968;BME280;9221;42.646;23.380;2023-04-01T07:13:34;93242.63;;;14.10;58.92
3968;BME280;9221;42.646;23.380;2023-04-01T07:18:38;93264.16;;;14.60;58.70
3968;BME280;9221;42.646;23.380;2023-04-01T07:21:26;93248.25;;;14.67;58.49
3968;BME280;9221;42.646;23.380;2023-04-01T07:23:54;93235.59;;;14.55;58.33
3968;BME280;9221;42.646;23.380;2023-04-01T07:26:23;93227.03;;;14.60;58.35
3968;BME280;9221;42.646;23.380;2023-04-01T07:28:51;93254.94;;;14.76;58.35
3968;BME280;9221;42.646;23.380;2023-04-01T07:36:24;93191.94;;;14.45;59.02
3968;BME280;9221;42.646;23.380;2023-04-01T07:39:08;93202.13;;;14.61;58.64
3968;BME280;9221;42.646;23.380;2023-04-01T07:44:29;93203.50;;;14.77;57.63
3968;BME280;9221;42.646;23.380;2023-04-01T07:47:43;93248.88;;;15.14;57.72
3968;BME280;9221;42.646;23.380;2023-04-01T07:50:18;93194.72;;;14.83;57.53
3968;BME280;9221;42.646;23.380;2023-04-01T07:55:41;93239.41;;;15.32;57.17
3968;BME280;9221;42.646;23.380;2023-04-01T08:01:14;93238.00;;;15.61;56.97
3968;BME280;9221;42.646;23.380;2023-04-01T08:07:06;93254.00;;;15.54;56.31
3968;BME280;9221;42.646;23.380;2023-04-01T08:15:19;93228.28;;;15.48;57.01
3968;BME280;9221;42.646;23.380;2023-04-01T08:20:57;93106.81;;;15.05;56.37
3968;BME280;9221;42.646;23.380;2023-04-01T08:23:27;93215.09;;;15.92;56.05
3968;BME280;9221;42.646;23.380;2023-04-01T08:26:02;93157.81;;;15.71;55.38
3968;BME280;9221;42.646;23.380;2023-04-01T08:28:46;93208.03;;;15.79;55.04
3968;BME280;9221;42.646;23.380;2023-04-01T08:31:23;93143.63;;;15.77;54.99
3968;BME280;9221;42.646;23.380;2023-04-01T08:33:53;93178.00;;;16.04;54.80
3968;BME280;9221;42.646;23.380;2023-04-01T08:36:23;93141.50;;;15.93;54.42
3968;BME280;9221;42.646;23.380;2023-04-01T08:39:13;93176.63;;;16.20;54.09
3968;BME280;9221;42.646;23.380;2023-04-01T08:42:03;93163.09;;;16.40;53.70
3968;BME280;9221;42.646;23.380;2023-04-01T08:55:40;93160.16;;;16.67;51.99
3968;BME280;9221;42.646;23.380;2023-04-01T09:03:47;93131.00;;;16.72;51.26
3968;BME280;9221;42.646;23.380;2023-04-01T09:25:13;93078.50;;;17.09;48.36
3968;BME280;9221;42.646;23.380;2023-04-01T09:27:47;93084.19;;;17.13;48.21
3968;BME280;9221;42.646;23.380;2023-04-01T09:30:48;93127.34;;;17.57;47.63
3968;BME280;9221;42.646;23.380;2023-04-01T09:34:20;93117.53;;;17.70;46.90
3968;BME280;9221;42.646;23.380;2023-04-01T09:44:35;93049.78;;;17.23;46.69
3968;BME280;9221;42.646;23.380;2023-04-01T09:47:06;93127.25;;;17.64;45.47
3968;BME280;9221;42.646;23.380;2023-04-01T09:54:59;93091.06;;;17.45;46.10
3968;BME280;9221;42.646;23.380;2023-04-01T10:04:10;93073.03;;;18.06;44.98
3968;BME280;9221;42.646;23.380;2023-04-01T10:16:21;93003.31;;;16.96;47.95
3968;BME280;9221;42.646;23.380;2023-04-01T10:55:19;93056.44;;;17.56;48.84
3968;BME280;9221;42.646;23.380;2023-04-01T11:21:27;92981.25;;;17.31;50.52
3968;BME280;9221;42.646;23.380;2023-04-01T11:32:06;92994.44;;;17.61;41.47
3968;BME280;9221;42.646;23.380;2023-04-01T11:45:27;93041.63;;;17.61;43.38
3968;BME280;9221;42.646;23.380;2023-04-01T12:02:11;93188.81;;;13.96;72.28
3968;BME280;9221;42.646;23.380;2023-04-01T12:04:58;93316.72;;;13.43;75.50
3968;BME280;9221;42.646;23.380;2023-04-01T12:07:49;93248.31;;;13.66;77.24
3968;BME280;9221;42.646;23.380;2023-04-01T12:10:42;93256.69;;;13.70;78.83
3968;BME280;9221;42.646;23.380;2023-04-01T12:13:28;93214.72;;;13.67;81.00
3968;BME280;9221;42.646;23.380;2023-04-01T12:21:36;93225.50;;;13.85;81.59
3968;BME280;9221;42.646;23.380;2023-04-01T12:36:14;93283.78;;;13.85;79.38
3968;BME280;9221;42.646;23.380;2023-04-01T12:53:20;93263.38;;;13.52;83.05
3968;BME280;9221;42.646;23.380;2023-04-01T12:56:02;93207.22;;;13.02;84.43
3968;BME280;9221;42.646;23.380;2023-04-01T13:09:28;93201.06;;;12.81;86.89
3968;BME280;9221;42.646;23.380;2023-04-01T13:20:50;93099.75;;;13.14;82.80
3968;BME280;9221;42.646;23.380;2023-04-01T13:23:24;93167.59;;;13.96;79.02
3968;BME280;9221;42.646;23.380;2023-04-01T13:25:58;93142.13;;;14.67;74.73
3968;BME280;9221;42.646;23.380;2023-04-01T13:28:40;93097.91;;;14.93;72.00
3968;BME280;9221;42.646;23.380;2023-04-01T13:34:02;93079.91;;;15.96;66.72
3968;BME280;9221;42.646;23.380;2023-04-01T13:44:17;93117.41;;;17.11;62.40
3968;BME280;9221;42.646;23.380;2023-04-01T14:10:43;93017.09;;;15.76;71.56
3968;BME280;9221;42.646;23.380;2023-04-01T14:13:21;93011.91;;;15.19;72.84
3968;BME280;9221;42.646;23.380;2023-04-01T14:18:51;93069.63;;;15.55;74.88
3968;BME280;9221;42.646;23.380;2023-04-01T14:27:14;93060.22;;;15.09;76.53
3968;BME280;9221;42.646;23.380;2023-04-01T14:33:01;93047.38;;;14.74;77.44
3968;BME280;9221;42.646;23.380;2023-04-01T14:35:38;93035.59;;;14.63;77.44
3968;BME280;9221;42.646;23.380;2023-04-01T14:41:19;93043.88;;;14.35;78.19
3968;BME280;9221;42.646;23.380;2023-04-01T14:49:37;93041.47;;;14.27;80.34
3968;BME280;9221;42.646;23.380;2023-04-01T14:52:15;93034.50;;;14.32;78.70
3968;BME280;9221;42.646;23.380;2023-04-01T14:54:44;93055.72;;;14.32;78.53
3968;BME280;9221;42.646;23.380;2023-04-01T14:57:12;93076.38;;;14.69;77.50
3968;BME280;9221;42.646;23.380;2023-04-01T14:59:47;93056.44;;;14.92;76.73
3968;BME280;9221;42.646;23.380;2023-04-01T15:16:54;93045.91;;;14.78;77.83
3968;BME280;9221;42.646;23.380;2023-04-01T15:19:31;93040.44;;;14.73;78.16
3968;BME280;9221;42.646;23.380;2023-04-01T15:25:05;93090.78;;;14.86;78.54
3968;BME280;9221;42.646;23.380;2023-04-01T15:28:00;93019.69;;;14.63;78.57
3968;BME280;9221;42.646;23.380;2023-04-01T15:30:44;93067.72;;;14.80;77.86
3968;BME280;9221;42.646;23.380;2023-04-01T15:34:17;93065.34;;;14.72;77.93
3968;BME280;9221;42.646;23.380;2023-04-01T15:38:51;92992.06;;;14.32;77.67
3968;BME280;9221;42.646;23.380;2023-04-01T15:41:35;93065.78;;;14.62;78.04
3968;BME280;9221;42.646;23.380;2023-04-01T15:44:01;93034.84;;;14.11;78.87
3968;BME280;9221;42.646;23.380;2023-04-01T15:46:44;93003.75;;;13.79;79.69
3968;BME280;9221;42.646;23.380;2023-04-01T15:52:07;93054.69;;;13.75;80.69
3968;BME280;9221;42.646;23.380;2023-04-01T15:57:29;93190.31;;;12.96;73.28
3968;BME280;9221;42.646;23.380;2023-04-01T16:06:53;93274.03;;;11.56;77.78
3968;BME280;9221;42.646;23.380;2023-04-01T16:11:49;93311.63;;;10.84;83.11
3968;BME280;9221;42.646;23.380;2023-04-01T16:14:32;93352.81;;;10.56;85.17
3968;BME280;9221;42.646;23.380;2023-04-01T16:22:23;93273.09;;;9.86;88.99
3968;BME280;9221;42.646;23.380;2023-04-01T16:25:32;93341.38;;;10.25;90.32
3968;BME280;9221;42.646;23.380;2023-04-01T16:30:39;93311.81;;;10.00;91.06
3968;BME280;9221;42.646;23.380;2023-04-01T16:46:32;93377.22;;;10.35;89.79
3968;BME280;9221;42.646;23.380;2023-04-01T17:02:17;93286.84;;;10.11;85.53
3968;BME280;9221;42.646;23.380;2023-04-01T17:04:54;93370.66;;;10.07;84.80
3968;BME280;9221;42.646;23.380;2023-04-01T17:07:35;93308.53;;;9.98;84.59
3968;BME280;9221;42.646;23.380;2023-04-01T17:11:22;93342.72;;;10.06;84.89
3968;BME280;9221;42.646;23.380;2023-04-01T17:13:35;93349.72;;;9.91;85.00
3968;BME280;9221;42.646;23.380;2023-04-01T17:16:18;93378.25;;;9.87;86.04
3968;BME280;9221;42.646;23.380;2023-04-01T17:26:41;93297.81;;;9.38;84.55
3968;BME280;9221;42.646;23.380;2023-04-01T17:29:38;93359.47;;;9.67;84.48
3968;BME280;9221;42.646;23.380;2023-04-01T17:32:31;93351.84;;;9.49;84.22
3968;BME280;9221;42.646;23.380;2023-04-01T17:35:13;93386.81;;;9.58;84.02
3968;BME280;9221;42.646;23.380;2023-04-01T17:51:37;93404.75;;;9.62;83.77
3968;BME280;9221;42.646;23.380;2023-04-01T17:54:34;93432.56;;;9.80;83.76
3968;BME280;9221;42.646;23.380;2023-04-01T17:57:39;93426.44;;;9.88;82.94
3968;BME280;9221;42.646;23.380;2023-04-01T18:00:14;93434.00;;;9.91;82.10
3968;BME280;9221;42.646;23.380;2023-04-01T18:03:04;93418.19;;;9.91;81.68
3968;BME280;9221;42.646;23.380;2023-04-01T18:06:00;93443.72;;;10.13;81.32
3968;BME280;9221;42.646;23.380;2023-04-01T18:11:11;93446.06;;;10.08;80.89
3968;BME280;9221;42.646;23.380;2023-04-01T18:16:32;93435.28;;;9.95;81.57
3968;BME280;9221;42.646;23.380;2023-04-01T18:21:46;93409.81;;;9.64;82.65
3968;BME280;9221;42.646;23.380;2023-04-01T18:24:28;93464.13;;;9.88;83.05
3968;BME280;9221;42.646;23.380;2023-04-01T18:27:21;93416.47;;;9.52;83.13
3968;BME280;9221;42.646;23.380;2023-04-01T18:29:55;93493.25;;;9.87;82.96
3968;BME280;9221;42.646;23.380;2023-04-01T18:32:48;93474.84;;;9.87;83.26
3968;BME280;9221;42.646;23.380;2023-04-01T18:35:27;93502.31;;;9.84;82.97
3968;BME280;9221;42.646;23.380;2023-04-01T18:38:00;93421.78;;;9.43;82.53
3968;BME280;9221;42.646;23.380;2023-04-01T18:43:34;93482.91;;;9.85;82.29
3968;BME280;9221;42.646;23.380;2023-04-01T18:46:19;93522.22;;;9.87;82.00
3968;BME280;9221;42.646;23.380;2023-04-01T18:49:07;93555.97;;;9.91;81.46
3968;BME280;9221;42.646;23.380;2023-04-01T18:54:27;93492.06;;;9.97;81.83
3968;BME280;9221;42.646;23.380;2023-04-01T18:57:18;93504.59;;;9.95;82.38
3968;BME280;9221;42.646;23.380;2023-04-01T18:59:52;93503.88;;;10.02;81.30
3968;BME280;9221;42.646;23.380;2023-04-01T19:02:39;93518.53;;;10.04;80.87
3968;BME280;9221;42.646;23.380;2023-04-01T19:05:38;93516.56;;;10.06;80.49
3968;BME280;9221;42.646;23.380;2023-04-01T19:08:20;93454.53;;;9.72;79.56
3968;BME280;9221;42.646;23.380;2023-04-01T19:21:58;93512.84;;;10.15;78.74
3968;BME280;9221;42.646;23.380;2023-04-01T19:27:18;93577.34;;;10.36;77.96
3968;BME280;9221;42.646;23.380;2023-04-01T19:35:26;93533.59;;;10.19;77.04
3968;BME280;9221;42.646;23.380;2023-04-01T19:41:04;93548.69;;;10.25;76.62
3968;BME280;9221;42.646;23.380;2023-04-01T19:44:01;93561.88;;;10.25;75.98
3968;BME280;9221;42.646;23.380;2023-04-01T19:46:45;93555.53;;;10.11;76.10
3968;BME280;9221;42.646;23.380;2023-04-01T19:54:42;93577.34;;;10.28;75.40
3968;BME280;9221;42.646;23.380;2023-04-01T19:59:53;93543.44;;;9.93;75.85
3968;BME280;9221;42.646;23.380;2023-04-01T20:02:39;93570.84;;;10.07;76.09
3968;BME280;9221;42.646;23.380;2023-04-01T20:07:50;93425.66;;;9.24;74.42
3968;BME280;9221;42.646;23.380;2023-04-01T20:10:24;93420.06;;;9.19;74.17
3968;BME280;9221;42.646;23.380;2023-04-01T20:13:18;93563.56;;;10.18;73.73
3968;BME280;9221;42.646;23.380;2023-04-01T20:15:54;93497.75;;;9.78;73.23
3968;BME280;9221;42.646;23.380;2023-04-01T20:18:34;93531.69;;;10.04;71.88
3968;BME280;9221;42.646;23.380;2023-04-01T20:21:30;93568.31;;;10.22;74.52
3968;BME280;9221;42.646;23.380;2023-04-01T20:24:21;93565.59;;;10.62;72.80
3968;BME280;9221;42.646;23.380;2023-04-01T20:26:59;93422.97;;;9.64;68.59
3968;BME280;9221;42.646;23.380;2023-04-01T20:29:34;93574.28;;;10.47;68.48
3968;BME280;9221;42.646;23.380;2023-04-01T20:32:14;93599.34;;;10.43;68.54
3968;BME280;9221;42.646;23.380;2023-04-01T20:35:06;93573.06;;;10.35;68.68
3968;BME280;9221;42.646;23.380;2023-04-01T20:37:53;93559.22;;;10.25;68.64
3968;BME280;9221;42.646;23.380;2023-04-01T20:40:35;93580.63;;;10.30;68.66
3968;BME280;9221;42.646;23.380;2023-04-01T20:51:11;93556.28;;;10.28;68.42
3968;BME280;9221;42.646;23.380;2023-04-01T20:56:23;93604.31;;;10.38;68.52
3968;BME280;9221;42.646;23.380;2023-04-01T21:01:47;93542.66;;;9.85;69.71
3968;BME280;9221;42.646;23.380;2023-04-01T21:04:22;93645.88;;;10.28;70.09
3968;BME280;9221;42.646;23.380;2023-04-01T21:06:50;93590.81;;;10.33;70.47
3968;BME280;9221;42.646;23.380;2023-04-01T21:12:18;93588.16;;;10.41;70.02
3968;BME280;9221;42.646;23.380;2023-04-01T21:17:42;93585.53;;;10.33;70.30
3968;BME280;9221;42.646;23.380;2023-04-01T21:20:28;93588.03;;;10.35;69.84
3968;BME280;9221;42.646;23.380;2023-04-01T21:23:03;93583.44;;;10.28;69.23
3968;BME280;9221;42.646;23.380;2023-04-01T21:25:38;93595.13;;;10.26;68.45
3968;BME280;9221;42.646;23.380;2023-04-01T21:28:16;93535.03;;;9.98;68.83
3968;BME280;9221;42.646;23.380;2023-04-01T21:44:46;93616.41;;;10.56;67.56
3968;BME280;9221;42.646;23.380;2023-04-01T21:52:56;93604.22;;;10.55;67.40
3968;BME280;9221;42.646;23.380;2023-04-01T21:55:55;93603.59;;;10.53;67.30
3968;BME280;9221;42.646;23.380;2023-04-01T22:01:47;93542.53;;;10.09;67.54
3968;BME280;9221;42.646;23.380;2023-04-01T22:07:21;93611.50;;;10.53;67.93
3968;BME280;9221;42.646;23.380;2023-04-01T22:12:23;93626.03;;;10.48;68.12
3968;BME280;9221;42.646;23.380;2023-04-01T22:23:36;93593.78;;;10.38;68.50
3968;BME280;9221;42.646;23.380;2023-04-01T22:29:16;93583.59;;;10.35;68.92
3968;BME280;9221;42.646;23.380;2023-04-01T22:31:54;93530.84;;;10.12;68.26
3968;BME280;9221;42.646;23.380;2023-04-01T22:37:12;93613.81;;;10.47;67.42
3968;BME280;9221;42.646;23.380;2023-04-01T22:47:59;93609.41;;;10.40;66.48
3968;BME280;9221;42.646;23.380;2023-04-01T22:50:32;93603.63;;;10.44;66.61
3968;BME280;9221;42.646;23.380;2023-04-01T22:53:08;93612.19;;;10.46;65.78
3968;BME280;9221;42.646;23.380;2023-04-01T22:55:40;93604.16;;;10.31;64.89
3968;BME280;9221;42.646;23.380;2023-04-01T22:58:13;93566.97;;;9.95;65.15
3968;BME280;9221;42.646;23.380;2023-04-01T23:00:49;93625.06;;;10.41;64.73
3968;BME280;9221;42.646;23.380;2023-04-01T23:03:28;93593.53;;;10.16;64.84